A- A+ FrançaisEnglishEspañol中国

le plus proche LFCU Ussel-ThalamyLFBT Tarbes-Lourdes-PyrénéesLFPK Coulommiers-VoisinsLFRS Nantes-Atlantique

manche à air

La météo aéronautique pour les pilotes, la préparation du vol avec les METAR (METeorological Aerodrome Report, message d'observation des conditions météorologiques pour l'aviation) et Les TAF (Terminal Aerodrome Forecast : message de prévision à court terme des conditions météorologiques pour l'aviation). Et les autres ressources comme les VAC (Visual Approch Chart) et les NOTAM (Notice To Airman) pour préprer les vols.

Aéroport Slave Lake (Canada) / OACI CYZH/ IATA YZH

L'altitude de l'aéroport Slave Lake est de 583 m=1913 ft. Il est situé à proximité de Slave Lake (Canada). La météo générale à 5 jours est disponible pour Slave Lake situé à 1.2 km.

METAR de l'aéroport Slave Lake - CYZH

CYZH 022107Z AUTO 27024G33KT 9SM -SN BKN034 OVC060 M04/M08 A2953 RMK SLP035

Décodage du METAR de l'aéroport Slave Lake (CA)

METAR émis par CYZH le jeudi 2 janvier 2020 à 21:07 heure TU. C'est un METAR généré automatiquement, il y a 0 minutes.

La visibilité est de 14.5 km=9 sm.

La température est de -4°C=25 °F et le point rosée est de -8°C=18 °F . Ce qui correspond à 74% d'humidité relative.

Le QNH est de 1000 hPa=29.53 inHg

Vent de 24 kt=44 km/h avec des rafales à 33 kt =61 km/h, orienté à 270°.

Nuages : Couverture nuageuse fragmentée à 3400 ft=1040 mètres. Couverture nuageuse soudée à 6000 ft=1830 mètres.

-SN

RMK SLP035

TAF de l'aéroport Slave Lake - CYZH

CYZH 021905Z 0219/0307 28025G35KT 6SM -SN OVC025 TEMPO 0219/0302 1SM -SHSN SCT008 OVC015 FM030200 28015G25KT P6SM FEW020 BKN040 TEMPO 0302/0305 4SM -SN BKN020 OVC040 FM030500 28010KT P6SM SCT040 RMK FCST BASED ON AUTO OBS. NXT FCST BY 030100Z

CYZH 021905Z 0219/0307 28025G35KT 6SM faible SN couverture nuageuse soudée à 025 temporairement 0219/0302 1SM faible SHSN nuages épars à 008 couverture nuageuse soudée à 015 FM030200 28015G25KT P6SM quelques nuages à 020 couverture nuageuse fragmentée à 040 temporairement 0302/0305 4SM faible SN couverture nuageuse fragmentée à 020 couverture nuageuse soudée à 040 FM030500 28010KT P6SM nuages épars à 040 remarques trombe ST BASED ON AUTO OBS. NXT trombe ST BY 030100Z

Aéroport à proximité de Slave Lake

Météo générale à 5 jours à Slave Lake (1.2 km)CZHP Aéroport High Prairie (108 km)CYWM Aéroport Athabasca (117 km)CYZU Aéroport Whitecourt (143 km)CYLB Aéroport Lac La Bitche (184 km)CZVL Aéroport Edmonton Villeneuve (190 km)CYPE Aéroport Peace River (197 km)

Vue aérienne de l'aéroport Slave Lake

NOTAM de l'aéroport Slave Lake

Les NOTAM sont fournis sans aucune garantie de leur actualité. Le pilote est le seul responsable de la vérification de sa validité avant de l'utiliser opérationnellement pour préparer un vol ou l'utiliser lors de sa navigation.

Pas de NOTAM

Sources des données